Weather History for KSPF - May, 2013

Change the Weather History Date:

Sunday, May 26, 2013

  Actual Average (KEFC) Record (KEFC)
Temperature  
Mean Temperature 59 °F -  
Max Temperature 68 °F 74 °F 97 °F (1969)
Min Temperature 50 °F 45 °F 29 °F (1992)
Degree Days  
Heating Degree Days 6    
Growing Degree Days 9 (Base 50)    
Moisture  
Dew Point 57 °F    
Average Humidity 92    
Maximum Humidity 100    
Minimum Humidity 68    
Precipitation  
Precipitation 0.00 in - - ()
Sea Level Pressure  
Sea Level Pressure 29.92 in    
Wind  
Wind Speed 12 mph (East)    
Max Wind Speed 18 mph    
Max Gust Speed 23 mph    
Visibility 8 miles    
Events Fog , Rain , Thunderstorm    
Averages and records for this station are not official NWS values.
T = Trace of Precipitation, MM = Missing Value Source: NWS Daily Summary

Daily Weather History Graph

Daily Weather History Graph

Search for Another Location

Airport or City:

Trip Planner

Search our weather history database for the weather conditions in past years. The results will help you decide how hot, cold, wet, or windy it might be!

Date:

Astronomy

May. 26, 2013 Rise Set
Actual Time 6:17 AM CDT 9:27 PM CDT
Civil Twilight 5:42 AM CDT 10:03 PM CDT
Nautical Twilight 4:56 AM CDT 10:48 PM CDT
Astronomical Twilight 4:01 AM CDT 11:44 PM CDT
Moon 11:16 PM CDT (5/26) 7:49 AM CDT (5/26)
Length of Visible Light 16h 21m
Length of Day
15h 10m
Waning Gibbous, 96% of the Moon is Illuminated
May 26
Waning Gibbous
May 31
Last Quarter
Jun 8
New
Jun 16
First Quarter
Jun 23
Full

Hourly Weather History & Observations

Time (CDT) Temp. Dew Point Humidity Pressure Visibility Wind Dir Wind Speed Gust Speed Precip Events Conditions
12:15 AM 62.6 °F 57.2 °F 82% 29.85 in 10.0 mi ESE 10.4 mph - N/A   Clear
12:35 AM 59.0 °F 57.2 °F 94% 29.85 in 10.0 mi NE 12.7 mph - N/A   Clear
12:55 AM 59.0 °F 57.2 °F 94% 29.84 in 10.0 mi East 17.3 mph - N/A   Clear
1:15 AM 59.0 °F 57.2 °F 94% 29.85 in 10.0 mi East 8.1 mph - N/A   Clear
1:35 AM 59.0 °F 59.0 °F 100% 29.84 in 10.0 mi East 13.8 mph 20.7 mph N/A   Clear
1:55 AM 59.0 °F 59.0 °F 100% 29.85 in 10.0 mi ESE 4.6 mph - N/A   Mostly Cloudy
2:15 AM 59.0 °F 59.0 °F 100% 29.85 in 7.0 mi East 9.2 mph - N/A   Overcast
2:35 AM 59.0 °F 59.0 °F 100% 29.85 in 4.0 mi East 12.7 mph - N/A   Overcast
2:55 AM 59.0 °F 59.0 °F 100% 29.85 in 5.0 mi ESE 10.4 mph - N/A   Overcast
3:15 AM 59.0 °F 59.0 °F 100% 29.85 in 7.0 mi ESE 12.7 mph - N/A   Overcast
3:35 AM 59.0 °F 59.0 °F 100% 29.86 in 10.0 mi SE 9.2 mph - N/A   Scattered Clouds
3:55 AM 59.0 °F 59.0 °F 100% 29.87 in 10.0 mi West 4.6 mph - N/A   Scattered Clouds
4:15 AM 59.0 °F 57.2 °F 94% 29.88 in 10.0 mi West 5.8 mph - N/A   Mostly Cloudy
4:35 AM 59.0 °F 57.2 °F 94% 29.89 in 10.0 mi WNW 8.1 mph - N/A   Scattered Clouds
4:55 AM 59.0 °F 57.2 °F 94% 29.92 in 10.0 mi WNW 9.2 mph - N/A   Scattered Clouds
5:15 AM 59.0 °F 59.0 °F 100% 29.94 in 1.2 mi North 11.5 mph - N/A   Overcast
5:35 AM 57.2 °F 57.2 °F 100% 29.96 in 0.2 mi ENE 18.4 mph 23.0 mph N/A Fog Fog
5:55 AM 51.8 °F 51.8 °F 100% 29.98 in 0.8 mi NE 18.4 mph - N/A Rain Light Rain
6:15 AM 51.8 °F 51.8 °F 100% 29.99 in 0.5 mi ENE 13.8 mph 20.7 mph N/A Fog Fog
6:35 AM 51.8 °F 51.8 °F 100% 30.00 in 0.5 mi ENE 12.7 mph 18.4 mph N/A Fog Fog
6:55 AM 51.8 °F 51.8 °F 100% 30.02 in 0.2 mi East 13.8 mph 23.0 mph N/A Fog Fog
7:15 AM 50.0 °F 50.0 °F 100% 30.02 in 2.5 mi East 16.1 mph 19.6 mph N/A   Mostly Cloudy
7:35 AM 50.0 °F 50.0 °F 100% 30.02 in 2.0 mi East 16.1 mph 19.6 mph N/A   Overcast
7:55 AM 50.0 °F 50.0 °F 100% 30.02 in 2.0 mi ESE 16.1 mph 19.6 mph N/A   Overcast
8:15 AM 50.0 °F 50.0 °F 100% 30.02 in 3.0 mi ESE 13.8 mph 21.9 mph N/A   Mostly Cloudy
8:35 AM 50.0 °F 50.0 °F 100% 30.02 in 4.0 mi ESE 15.0 mph 19.6 mph N/A   Partly Cloudy
8:55 AM 50.0 °F 50.0 °F 100% 30.02 in 8.0 mi ESE 18.4 mph - N/A   Clear
9:15 AM 51.8 °F 51.8 °F 100% 30.01 in 8.0 mi ESE 17.3 mph - N/A   Clear
9:35 AM 53.6 °F 53.6 °F 100% 29.99 in 10.0 mi ESE 15.0 mph 19.6 mph N/A   Mostly Cloudy
9:55 AM 55.4 °F 53.6 °F 94% 29.98 in 10.0 mi ESE 16.1 mph - N/A   Scattered Clouds
10:15 AM 57.2 °F 53.6 °F 88% 29.97 in 10.0 mi East 16.1 mph - N/A   Clear
10:35 AM 59.0 °F 53.6 °F 82% 29.96 in 10.0 mi East 13.8 mph - N/A   Clear
10:55 AM 62.6 °F 55.4 °F 77% 29.96 in 10.0 mi East 12.7 mph - N/A   Clear
11:15 AM 64.4 °F 55.4 °F 73% 29.96 in 10.0 mi East 10.4 mph 17.3 mph N/A   Clear
11:35 AM 66.2 °F 57.2 °F 73% 29.95 in 10.0 mi East 13.8 mph 17.3 mph N/A   Clear
11:55 AM 66.2 °F 57.2 °F 73% 29.95 in 10.0 mi East 11.5 mph - N/A   Clear
12:15 PM 68.0 °F 57.2 °F 68% 29.94 in 10.0 mi East 15.0 mph - N/A   Clear
12:35 PM 68.0 °F 59.0 °F 73% 29.94 in 10.0 mi East 12.7 mph 18.4 mph N/A   Clear
12:55 PM 66.2 °F 59.0 °F 78% 29.94 in 10.0 mi ENE 12.7 mph - N/A   Clear
1:15 PM 68.0 °F 59.0 °F 73% 29.93 in 10.0 mi ENE 13.8 mph - N/A   Clear
1:35 PM 68.0 °F 59.0 °F 73% 29.93 in 10.0 mi ENE 17.3 mph - N/A   Clear
1:55 PM 68.0 °F 59.0 °F 73% 29.92 in 10.0 mi East 13.8 mph - N/A   Clear
2:15 PM 64.4 °F 59.0 °F 83% 29.92 in 10.0 mi East 13.8 mph - N/A   Clear
2:35 PM 64.4 °F 59.0 °F 83% 29.93 in 10.0 mi East 6.9 mph - N/A   Clear
2:55 PM 62.6 °F 59.0 °F 88% 29.93 in 10.0 mi ENE 6.9 mph - N/A Thunderstorm Clear
3:15 PM 60.8 °F 59.0 °F 94% 29.93 in 10.0 mi NE 9.2 mph - N/A Thunderstorm Thunderstorm
3:35 PM 60.8 °F 59.0 °F 94% 29.92 in 10.0 mi East 5.8 mph - N/A   Clear
3:55 PM 60.8 °F 57.2 °F 88% 29.90 in 10.0 mi ENE 6.9 mph - N/A   Clear
4:15 PM 62.6 °F 57.2 °F 82% 29.90 in 10.0 mi ESE 16.1 mph 19.6 mph N/A   Clear
4:35 PM 62.6 °F 59.0 °F 88% 29.91 in 10.0 mi ESE 11.5 mph - N/A   Clear
4:55 PM 62.6 °F 59.0 °F 88% 29.92 in 10.0 mi NE 9.2 mph - N/A   Clear
5:15 PM 62.6 °F 59.0 °F 88% 29.90 in 10.0 mi East 12.7 mph - N/A   Clear
5:35 PM 64.4 °F 59.0 °F 83% 29.90 in 10.0 mi ESE 13.8 mph - N/A   Clear
5:55 PM 62.6 °F 59.0 °F 88% 29.90 in 10.0 mi East 10.4 mph - N/A   Clear
6:15 PM 66.2 °F 59.0 °F 78% 29.89 in 10.0 mi East 8.1 mph - N/A   Clear
6:35 PM 62.6 °F 59.0 °F 88% 29.89 in 10.0 mi NNE 15.0 mph - N/A   Partly Cloudy
6:55 PM 59.0 °F 59.0 °F 100% 29.90 in 8.0 mi NNE 9.2 mph - N/A   Mostly Cloudy
7:15 PM 59.0 °F 59.0 °F 100% 29.91 in 8.0 mi ENE 15.0 mph - N/A   Scattered Clouds
7:35 PM 59.0 °F 57.2 °F 94% 29.90 in 7.0 mi East 15.0 mph 20.7 mph N/A   Mostly Cloudy
7:55 PM 59.0 °F 57.2 °F 94% 29.91 in 8.0 mi East 13.8 mph 20.7 mph N/A   Mostly Cloudy
8:15 PM 59.0 °F 57.2 °F 94% 29.90 in 7.0 mi East 17.3 mph - N/A   Mostly Cloudy
8:35 PM 59.0 °F 57.2 °F 94% 29.90 in 7.0 mi East 15.0 mph - N/A   Overcast
8:55 PM 59.0 °F 57.2 °F 94% 29.90 in 5.0 mi ESE 15.0 mph - N/A   Overcast
9:15 PM 57.2 °F 57.2 °F 100% 29.90 in 6.0 mi East 13.8 mph 20.7 mph N/A   Overcast
9:35 PM 57.2 °F 57.2 °F 100% 29.89 in 7.0 mi East 13.8 mph 20.7 mph N/A   Overcast
9:55 PM 57.2 °F 57.2 °F 100% 29.90 in 9.0 mi East 13.8 mph 19.6 mph N/A   Mostly Cloudy
10:15 PM 57.2 °F 57.2 °F 100% 29.89 in 10.0 mi East 13.8 mph - N/A   Partly Cloudy
10:35 PM 59.0 °F 55.4 °F 88% 29.90 in 10.0 mi East 9.2 mph - N/A   Clear
10:55 PM 59.0 °F 55.4 °F 88% 29.89 in 10.0 mi ENE 10.4 mph - N/A   Clear
11:15 PM 57.2 °F 57.2 °F 100% 29.89 in 4.0 mi East 11.5 mph - N/A   Mostly Cloudy
11:35 PM 57.2 °F 57.2 °F 100% 29.88 in 9.0 mi ESE 9.2 mph - N/A Thunderstorm Partly Cloudy
11:55 PM 57.2 °F 57.2 °F 100% 29.89 in 5.0 mi East 6.9 mph - N/A   Scattered Clouds